Time;durP1;ratioP1;P1;durP2;ratioP2;P2;SDS_P1;SDS_P2;PMS_P1;PMS_P2;Temp;Humidity;BMP_temperature;BMP_pressure;BME280_temperature;BME280_humidity;BME280_pressure;Samples;Min_cycle;Max_cycle;Signal;HPM_P1;HPM_P2
2021/12/28 00:00:00;;;;;;;9.48;5.32;;;;;;;-5.83;64.00;99437.31;5077683;28;20028;-58
2021/12/28 00:02:26;;;;;;;10.02;4.97;;;;;;;-5.86;63.62;99445.31;5089315;28;20502;-58
2021/12/28 00:04:52;;;;;;;10.52;4.97;;;;;;;-5.84;63.02;99453.75;5074460;28;20418;-58
2021/12/28 00:07:18;;;;;;;9.25;4.72;;;;;;;-5.80;63.71;99464.66;5087389;28;20036;-56
2021/12/28 00:09:44;;;;;;;11.75;5.10;;;;;;;-5.77;64.14;99457.44;5074204;28;20044;-58
2021/12/28 00:12:11;;;;;;;7.55;4.30;;;;;;;-5.72;63.42;99455.28;5074126;28;20044;-57
2021/12/28 00:14:41;;;;;;;7.32;4.32;;;;;;;-5.67;63.74;99459.28;5074025;28;20162;-57
2021/12/28 00:19:51;;;;;;;11.30;5.75;;;;;;;-5.72;63.49;99450.13;5074317;28;20115;-59
2021/12/28 00:22:16;;;;;;;7.68;4.75;;;;;;;-5.71;63.66;99448.34;5073856;28;20037;-57
2021/12/28 00:24:43;;;;;;;10.85;5.35;;;;;;;-5.79;63.00;99446.44;5074175;28;20066;-59
2021/12/28 00:27:09;;;;;;;9.13;4.88;;;;;;;-5.72;63.30;99447.56;5082227;28;20485;-57
2021/12/28 00:29:35;;;;;;;8.45;4.53;;;;;;;-5.68;63.89;99442.94;5072555;28;20093;-58
2021/12/28 00:32:01;;;;;;;13.18;5.88;;;;;;;-5.65;62.94;99449.59;5038925;28;20162;-57
2021/12/28 00:34:26;;;;;;;10.60;5.55;;;;;;;-5.62;62.41;99449.34;5072328;28;20403;-58
2021/12/28 00:36:52;;;;;;;8.13;4.50;;;;;;;-5.62;62.96;99447.56;5090587;28;20051;-56
2021/12/28 00:39:18;;;;;;;8.80;4.93;;;;;;;-5.57;63.00;99444.59;5085754;28;20050;-59
2021/12/28 00:41:44;;;;;;;10.30;5.22;;;;;;;-5.52;62.55;99453.59;5093756;28;20051;-58
2021/12/28 00:44:10;;;;;;;9.50;5.03;;;;;;;-5.55;61.48;99455.63;5080965;28;20580;-57
2021/12/28 00:46:35;;;;;;;7.28;4.80;;;;;;;-5.65;61.56;99447.84;5093823;28;20051;-55
2021/12/28 00:49:01;;;;;;;8.27;4.72;;;;;;;-5.68;62.40;99448.09;5072034;28;20530;-58
2021/12/28 00:51:27;;;;;;;9.90;4.68;;;;;;;-5.70;61.34;99452.59;5052227;28;20041;-58
2021/12/28 00:53:53;;;;;;;11.38;4.97;;;;;;;-5.80;62.64;99455.13;5071707;28;20624;-57
2021/12/28 00:56:18;;;;;;;7.00;4.00;;;;;;;-5.97;61.88;99455.78;5092101;28;20054;-58
2021/12/28 00:58:44;;;;;;;6.63;4.57;;;;;;;-6.17;62.45;99465.22;5077548;28;20418;-56
2021/12/28 01:01:10;;;;;;;8.35;4.95;;;;;;;-6.47;62.67;99468.56;5071269;28;20056;-56
2021/12/28 01:03:38;;;;;;;9.85;5.38;;;;;;;-6.38;63.27;99472.97;5073404;28;20051;-53
2021/12/28 01:06:05;;;;;;;10.07;5.72;;;;;;;-6.30;62.56;99477.50;5073038;28;20045;-57
2021/12/28 01:08:31;;;;;;;9.50;4.97;;;;;;;-6.27;62.75;99469.50;5073267;28;20044;-58
2021/12/28 01:10:58;;;;;;;8.57;4.68;;;;;;;-6.39;62.83;99473.91;5072980;28;20051;-58
2021/12/28 01:13:25;;;;;;;10.68;5.82;;;;;;;-6.48;63.56;99479.81;5077427;28;20131;-57
2021/12/28 01:15:52;;;;;;;9.88;5.32;;;;;;;-6.55;61.99;99487.25;5092010;28;20055;-58
2021/12/28 01:18:18;;;;;;;9.27;5.18;;;;;;;-6.56;63.66;99483.03;5079163;28;20525;-57
2021/12/28 01:20:44;;;;;;;11.23;5.45;;;;;;;-6.79;63.67;99482.34;5071773;28;20066;-58
2021/12/28 01:23:14;;;;;;;7.88;4.63;;;;;;;-6.90;63.28;99484.97;5074986;28;20476;-55
2021/12/28 01:25:44;;;;;;;11.23;4.93;;;;;;;-6.80;64.14;99483.25;5072627;28;20052;-57
2021/12/28 01:28:10;;;;;;;14.57;5.82;;;;;;;-6.92;63.78;99484.25;5072491;28;20041;-55
2021/12/28 01:30:39;;;;;;;9.93;4.78;;;;;;;-6.89;64.03;99491.75;5072490;28;20036;-58
2021/12/28 01:33:05;;;;;;;7.00;4.30;;;;;;;-6.91;62.78;99493.59;5071401;28;20060;-58
2021/12/28 01:35:32;;;;;;;7.85;4.55;;;;;;;-7.03;63.38;99490.25;5072442;28;20048;-58
2021/12/28 01:37:58;;;;;;;9.90;5.22;;;;;;;-7.30;63.79;99488.13;5075700;28;20052;-59
2021/12/28 01:40:30;;;;;;;8.82;5.03;;;;;;;-7.29;64.82;99494.06;5072628;28;20068;-57
2021/12/28 01:42:57;;;;;;;10.10;4.85;;;;;;;-7.43;64.39;99497.75;5070968;28;20131;-58
2021/12/28 01:45:33;;;;;;;8.77;4.80;;;;;;;-7.63;64.54;99489.00;5072272;28;20044;-58
2021/12/28 01:47:59;;;;;;;10.35;5.25;;;;;;;-7.69;64.75;99490.28;5072417;28;20048;-59
2021/12/28 01:50:25;;;;;;;7.90;4.72;;;;;;;-7.72;64.94;99500.00;5072066;28;20036;-58
2021/12/28 01:52:51;;;;;;;9.73;5.00;;;;;;;-7.83;65.18;99482.81;5070797;28;20052;-58
2021/12/28 01:55:17;;;;;;;8.85;5.65;;;;;;;-7.88;66.06;99500.34;5070820;28;20051;-58
2021/12/28 01:57:44;;;;;;;9.85;4.85;;;;;;;-7.98;66.39;99495.09;5072226;28;20081;-58
2021/12/28 02:00:11;;;;;;;11.48;4.75;;;;;;;-8.01;64.92;99491.00;5072444;28;20040;-58
2021/12/28 02:02:39;;;;;;;7.65;4.22;;;;;;;-8.07;65.76;99504.31;5072092;28;20507;-58
2021/12/28 02:05:04;;;;;;;10.70;5.88;;;;;;;-8.18;66.58;99503.50;5054016;28;20079;-57
2021/12/28 02:07:30;;;;;;;8.63;4.63;;;;;;;-8.28;66.53;99511.06;5071972;28;20063;-57
2021/12/28 02:09:56;;;;;;;7.72;4.50;;;;;;;-8.29;65.97;99504.31;5072890;28;20084;-58
2021/12/28 02:12:22;;;;;;;8.10;4.57;;;;;;;-8.25;66.03;99506.53;5085188;28;20131;-57
2021/12/28 02:14:48;;;;;;;12.23;4.10;;;;;;;-8.31;65.41;99506.16;5074303;28;20040;-58
2021/12/28 02:17:14;;;;;;;7.07;4.53;;;;;;;-8.48;66.19;99508.25;5086994;28;20045;-56
2021/12/28 02:19:41;;;;;;;9.50;5.13;;;;;;;-8.57;66.85;99511.50;5071735;28;20131;-57
2021/12/28 02:22:08;;;;;;;8.88;4.50;;;;;;;-8.67;67.20;99514.88;5071399;28;20045;-55
2021/12/28 02:24:34;;;;;;;9.80;5.22;;;;;;;-8.65;68.01;99518.13;5071914;28;20032;-59
2021/12/28 02:26:59;;;;;;;10.00;4.72;;;;;;;-8.73;67.43;99522.09;5070161;28;20135;-56
2021/12/28 02:29:25;;;;;;;10.18;4.72;;;;;;;-8.78;68.70;99515.63;5076366;28;20040;-59
2021/12/28 02:31:55;;;;;;;13.38;4.57;;;;;;;-8.83;69.23;99520.28;5089836;28;20444;-57
2021/12/28 02:34:25;;;;;;;11.45;5.38;;;;;;;-8.83;68.72;99521.09;5072989;28;20110;-55
2021/12/28 02:36:51;;;;;;;7.38;4.50;;;;;;;-8.88;69.16;99515.50;5070234;28;20036;-57
2021/12/28 02:39:17;;;;;;;9.13;5.20;;;;;;;-8.92;69.73;99514.88;5071702;28;20055;-57
2021/12/28 02:41:43;;;;;;;10.93;6.03;;;;;;;-8.88;69.13;99524.94;5070414;28;20036;-57
2021/12/28 02:44:09;;;;;;;10.00;5.18;;;;;;;-9.00;69.43;99522.34;5083609;28;20054;-59
2021/12/28 02:46:35;;;;;;;10.32;5.47;;;;;;;-9.01;70.36;99528.38;5090394;28;20417;-58
2021/12/28 02:49:01;;;;;;;13.48;5.50;;;;;;;-8.96;70.70;99525.50;5070788;28;20052;-58
2021/12/28 02:51:27;;;;;;;12.43;5.70;;;;;;;-8.96;70.14;99525.50;5070049;28;20041;-57
2021/12/28 02:53:53;;;;;;;9.75;5.47;;;;;;;-9.06;70.47;99529.63;5078319;28;20048;-60
2021/12/28 02:56:20;;;;;;;11.13;5.43;;;;;;;-9.02;71.06;99524.19;5071758;28;20041;-58
2021/12/28 02:58:49;;;;;;;10.18;5.97;;;;;;;-9.05;70.85;99531.28;5071792;28;20509;-57
2021/12/28 03:01:15;;;;;;;15.02;6.78;;;;;;;-9.03;71.71;99530.25;5071647;28;20497;-58
2021/12/28 03:03:43;;;;;;;11.50;6.30;;;;;;;-9.01;70.42;99537.84;5071802;28;20132;-59
2021/12/28 03:06:11;;;;;;;16.08;7.18;;;;;;;-8.99;71.34;99541.13;5072910;28;20041;-57
2021/12/28 03:08:40;;;;;;;15.82;7.13;;;;;;;-8.97;70.36;99539.25;5084088;28;20040;-57
2021/12/28 03:11:07;;;;;;;15.43;7.30;;;;;;;-8.97;71.08;99547.78;5089669;28;20498;-57
2021/12/28 03:13:36;;;;;;;14.68;7.30;;;;;;;-8.93;71.04;99545.81;5085718;28;20593;-57
2021/12/28 03:16:02;;;;;;;14.00;7.28;;;;;;;-8.94;70.71;99539.88;5082168;28;20044;-58
2021/12/28 03:18:28;;;;;;;13.50;7.97;;;;;;;-8.97;71.44;99544.38;5089138;28;20043;-58
2021/12/28 03:20:54;;;;;;;15.93;7.90;;;;;;;-9.01;70.98;99546.34;5071060;28;20102;-57
2021/12/28 03:23:22;;;;;;;15.32;8.07;;;;;;;-9.07;70.75;99551.94;5071589;28;20117;-57
2021/12/28 03:25:48;;;;;;;17.67;9.15;;;;;;;-9.06;71.38;99547.59;5081653;28;20036;-55
2021/12/28 03:28:21;;;;;;;14.35;7.63;;;;;;;-9.07;71.36;99551.13;5095581;28;20044;-56
2021/12/28 03:30:48;;;;;;;17.70;7.65;;;;;;;-9.11;71.31;99552.28;5089654;28;20082;-58
2021/12/28 03:33:13;;;;;;;15.60;8.10;;;;;;;-9.09;71.43;99552.97;5095522;28;20140;-57
2021/12/28 03:35:40;;;;;;;14.45;7.55;;;;;;;-9.18;70.79;99552.66;5077715;28;20464;-57
2021/12/28 03:38:05;;;;;;;15.57;8.27;;;;;;;-9.19;71.71;99553.59;5073622;28;20040;-58
2021/12/28 03:40:32;;;;;;;17.85;8.70;;;;;;;-9.18;71.72;99552.66;5073161;28;20139;-57
2021/12/28 03:42:58;;;;;;;17.42;8.20;;;;;;;-9.21;71.17;99552.88;5074979;28;20109;-56
2021/12/28 03:45:25;;;;;;;14.05;6.72;;;;;;;-9.23;70.92;99562.47;5074475;28;20033;-57
2021/12/28 03:47:50;;;;;;;15.52;8.88;;;;;;;-9.22;71.12;99556.41;5074795;28;20051;-57
2021/12/28 03:50:19;;;;;;;17.88;8.13;;;;;;;-9.23;71.39;99554.75;5081458;28;20032;-57
2021/12/28 03:52:45;;;;;;;15.85;8.10;;;;;;;-9.16;71.31;99561.09;5094746;28;20142;-56
2021/12/28 03:55:11;;;;;;;15.93;8.07;;;;;;;-9.16;71.19;99560.28;5082739;28;20091;-57
2021/12/28 03:57:39;;;;;;;17.75;8.35;;;;;;;-9.22;70.56;99560.72;5074275;28;20063;-55
2021/12/28 04:00:12;;;;;;;15.05;7.40;;;;;;;-9.32;71.02;99559.69;5074071;28;20048;-59
2021/12/28 04:02:39;;;;;;;13.10;7.22;;;;;;;-9.35;72.04;99560.75;5074511;28;20052;-56
2021/12/28 04:05:05;;;;;;;16.13;7.20;;;;;;;-9.29;71.81;99564.63;5078614;28;20036;-57
2021/12/28 04:07:30;;;;;;;12.73;7.43;;;;;;;-9.25;71.91;99563.50;5075065;28;20048;-57
2021/12/28 04:10:00;;;;;;;11.38;6.72;;;;;;;-9.22;71.93;99556.41;5085145;28;20094;-58
2021/12/28 04:12:27;;;;;;;14.88;7.65;;;;;;;-9.24;71.47;99563.38;5079482;28;20040;-56
2021/12/28 04:14:52;;;;;;;13.23;6.47;;;;;;;-9.21;71.46;99559.78;5084207;28;20075;-59
2021/12/28 04:17:18;;;;;;;16.50;6.95;;;;;;;-9.22;71.83;99570.97;5074146;28;20044;-57
2021/12/28 04:19:44;;;;;;;13.43;6.50;;;;;;;-9.27;70.86;99566.16;5073762;28;20044;-57
2021/12/28 04:22:10;;;;;;;12.73;6.70;;;;;;;-9.22;71.50;99566.66;5073868;28;20052;-56
2021/12/28 04:24:36;;;;;;;11.68;6.05;;;;;;;-9.18;71.08;99574.97;5086556;28;20044;-57
2021/12/28 04:27:02;;;;;;;11.38;5.90;;;;;;;-9.17;70.03;99579.19;5087545;28;20040;-57
2021/12/28 04:29:28;;;;;;;12.88;5.45;;;;;;;-9.22;71.08;99576.94;5089057;28;20123;-56
2021/12/28 04:31:53;;;;;;;13.40;6.43;;;;;;;-9.25;70.36;99574.59;5082257;28;20052;-57
2021/12/28 04:34:19;;;;;;;19.98;7.18;;;;;;;-9.25;70.79;99587.41;5073941;28;20055;-57
2021/12/28 04:36:47;;;;;;;11.57;5.93;;;;;;;-9.29;70.15;99586.00;5074277;28;20041;-58
2021/12/28 04:39:13;;;;;;;16.05;6.70;;;;;;;-9.33;71.50;99596.56;5075286;28;20036;-57
2021/12/28 04:41:40;;;;;;;12.43;6.68;;;;;;;-9.34;70.93;99590.63;5081430;28;20036;-58
2021/12/28 04:44:06;;;;;;;13.25;5.75;;;;;;;-9.16;71.10;99597.06;5075316;28;20044;-59
2021/12/28 04:46:32;;;;;;;8.80;5.63;;;;;;;-8.99;69.81;99598.44;5072261;28;20086;-59
2021/12/28 04:48:58;;;;;;;14.95;7.10;;;;;;;-8.87;69.23;99596.75;5072165;28;20048;-64
2021/12/28 04:51:25;;;;;;;19.40;7.95;;;;;;;-8.66;67.92;99599.56;5090964;28;20050;-57
2021/12/28 04:53:54;;;;;;;14.98;7.97;;;;;;;-8.58;67.65;99602.41;5093225;28;20135;-56
2021/12/28 04:56:20;;;;;;;15.48;7.90;;;;;;;-8.48;67.94;99600.78;5073165;28;20075;-58
2021/12/28 04:58:46;;;;;;;14.52;7.63;;;;;;;-8.33;67.46;99595.44;5072972;28;20049;-59
2021/12/28 05:01:13;;;;;;;21.33;10.88;;;;;;;-8.21;66.33;99599.69;5066647;28;20039;-59
2021/12/28 05:03:39;;;;;;;18.48;8.55;;;;;;;-8.08;67.63;99603.00;5091983;28;20485;-57
2021/12/28 05:06:05;;;;;;;17.35;8.20;;;;;;;-7.93;68.06;99605.38;5074736;28;20058;-57
2021/12/28 05:08:31;;;;;;;18.88;7.88;;;;;;;-7.88;65.76;99600.69;5074840;28;20060;-58
2021/12/28 05:10:57;;;;;;;15.95;8.32;;;;;;;-7.72;67.38;99602.97;5077543;28;20040;-60
2021/12/28 05:13:23;;;;;;;14.77;7.88;;;;;;;-7.71;65.36;99604.59;5073375;28;20055;-56
2021/12/28 05:15:52;;;;;;;21.05;8.25;;;;;;;-7.57;66.06;99607.75;5072373;28;20044;-56
2021/12/28 05:18:18;;;;;;;21.30;9.13;;;;;;;-7.50;64.74;99607.28;5073060;28;20045;-63
2021/12/28 05:20:44;;;;;;;18.85;7.80;;;;;;;-7.55;65.39;99603.31;5072173;28;20101;-56
2021/12/28 05:23:10;;;;;;;15.30;8.27;;;;;;;-7.41;65.34;99614.31;5091891;28;20497;-58
2021/12/28 05:25:36;;;;;;;18.60;8.55;;;;;;;-7.32;65.26;99614.44;5085596;28;20039;-57
2021/12/28 05:28:03;;;;;;;19.23;9.27;;;;;;;-7.31;63.77;99613.50;5072804;28;20044;-57
2021/12/28 05:30:29;;;;;;;19.20;8.93;;;;;;;-7.35;63.74;99619.03;5078708;28;20082;-57
2021/12/28 05:32:55;;;;;;;26.77;10.93;;;;;;;-7.35;64.67;99630.13;5087485;28;20044;-57
2021/12/28 05:35:21;;;;;;;26.23;10.05;;;;;;;-7.29;64.84;99628.84;5087891;28;20056;-51
2021/12/28 05:37:47;;;;;;;18.77;8.85;;;;;;;-7.19;65.24;99639.25;5087803;28;20123;-58
2021/12/28 05:40:13;;;;;;;14.75;7.75;;;;;;;-7.23;65.19;99620.66;5090980;28;20044;-58
2021/12/28 05:42:39;;;;;;;17.00;8.27;;;;;;;-7.09;64.29;99637.59;5073962;28;20074;-57
2021/12/28 05:45:06;;;;;;;15.05;7.70;;;;;;;-7.04;64.52;99642.41;5070966;28;20068;-55
2021/12/28 05:47:31;;;;;;;14.48;6.47;;;;;;;-7.01;65.59;99642.19;5070567;28;20068;-55
2021/12/28 05:49:57;;;;;;;12.05;6.47;;;;;;;-6.96;64.03;99647.81;5070886;28;20040;-57
2021/12/28 05:52:23;;;;;;;11.75;6.05;;;;;;;-6.99;65.41;99648.84;5072106;28;20045;-56
2021/12/28 05:54:49;;;;;;;13.05;6.80;;;;;;;-6.98;64.27;99640.19;5071936;28;20048;-57
2021/12/28 05:57:15;;;;;;;14.13;6.55;;;;;;;-6.99;64.32;99643.69;5071732;28;20082;-56
2021/12/28 05:59:42;;;;;;;12.90;6.70;;;;;;;-6.89;64.33;99648.97;5072958;28;20035;-55
2021/12/28 06:02:08;;;;;;;15.40;7.30;;;;;;;-6.90;64.13;99637.84;5082928;28;20109;-55
2021/12/28 06:04:34;;;;;;;25.33;7.32;;;;;;;-6.93;64.62;99645.81;5074160;28;20459;-57
2021/12/28 06:07:00;;;;;;;12.55;7.10;;;;;;;-7.15;64.70;99631.16;5080808;28;20044;-55
2021/12/28 06:09:26;;;;;;;13.77;6.90;;;;;;;-7.27;64.32;99636.44;5072453;28;20444;-55
2021/12/28 06:11:51;;;;;;;10.93;6.00;;;;;;;-7.45;65.66;99643.81;5065195;28;20095;-54
2021/12/28 06:14:17;;;;;;;13.85;5.95;;;;;;;-7.66;64.34;99643.69;5086130;28;20047;-57
2021/12/28 06:16:43;;;;;;;8.70;5.47;;;;;;;-7.72;65.01;99647.53;5081874;28;20425;-55
2021/12/28 06:19:09;;;;;;;11.38;5.93;;;;;;;-7.75;65.45;99646.94;5067322;28;20463;-56
2021/12/28 06:21:35;;;;;;;18.48;6.25;;;;;;;-7.75;66.03;99662.38;5068447;28;20079;-55
2021/12/28 06:24:02;;;;;;;13.98;6.85;;;;;;;-7.69;65.62;99662.75;5068416;28;20045;-56
2021/12/28 06:26:29;;;;;;;17.35;6.68;;;;;;;-7.59;64.69;99662.88;5064900;28;20041;-56
2021/12/28 06:28:55;;;;;;;12.75;7.13;;;;;;;-7.51;66.11;99672.59;5063380;28;20033;-56
2021/12/28 06:31:21;;;;;;;14.48;7.60;;;;;;;-7.55;65.01;99664.31;5077194;28;20486;-59
2021/12/28 06:33:47;;;;;;;11.88;8.13;;;;;;;-7.47;65.25;99674.84;5067650;28;20094;-53
2021/12/28 06:36:13;;;;;;;15.52;7.32;;;;;;;-7.55;65.30;99672.84;5074670;28;20101;-61
2021/12/28 06:38:39;;;;;;;18.15;9.02;;;;;;;-7.59;65.38;99668.88;5070343;28;20040;-55
2021/12/28 06:41:06;;;;;;;13.75;7.95;;;;;;;-7.62;66.01;99679.38;5069420;28;20044;-57
2021/12/28 06:43:32;;;;;;;15.88;8.95;;;;;;;-7.70;66.29;99678.31;5087736;28;20455;-56
2021/12/28 06:45:58;;;;;;;18.25;9.32;;;;;;;-7.89;65.85;99679.66;5086943;28;20147;-57
2021/12/28 06:48:24;;;;;;;13.15;7.88;;;;;;;-8.08;67.92;99677.63;5066895;28;20151;-58
2021/12/28 06:50:50;;;;;;;14.27;7.20;;;;;;;-8.04;67.37;99689.31;5065233;28;20037;-54
2021/12/28 06:53:16;;;;;;;13.95;7.28;;;;;;;-8.07;68.41;99692.09;5081502;28;20521;-55
2021/12/28 06:55:42;;;;;;;15.30;7.05;;;;;;;-8.01;67.71;99686.50;5086509;28;20101;-55
2021/12/28 06:58:08;;;;;;;13.45;6.65;;;;;;;-8.08;68.04;99680.19;5078717;28;20040;-57
2021/12/28 07:00:34;;;;;;;12.30;6.45;;;;;;;-8.12;68.07;99685.66;5086119;28;20519;-57
2021/12/28 07:03:02;;;;;;;10.93;6.15;;;;;;;-8.10;68.21;99700.03;5069492;28;20460;-58
2021/12/28 07:05:28;;;;;;;10.38;6.60;;;;;;;-8.05;68.60;99697.16;5083204;28;20069;-57
2021/12/28 07:07:53;;;;;;;11.40;6.50;;;;;;;-8.04;68.16;99696.22;5072840;28;20476;-57
2021/12/28 07:10:20;;;;;;;17.45;9.25;;;;;;;-7.97;66.88;99700.00;5068007;28;20039;-58
2021/12/28 07:12:50;;;;;;;17.67;8.45;;;;;;;-7.95;67.33;99695.53;5081331;28;20044;-55
2021/12/28 07:15:20;;;;;;;21.48;9.10;;;;;;;-7.95;67.01;99697.28;5090752;28;20048;-55
2021/12/28 07:17:45;;;;;;;18.98;8.65;;;;;;;-8.04;67.52;99694.47;5077711;28;20041;-56
2021/12/28 07:20:12;;;;;;;14.13;6.63;;;;;;;-8.11;67.86;99706.13;5087247;28;20051;-57
2021/12/28 07:22:39;;;;;;;10.57;6.47;;;;;;;-8.08;67.91;99707.66;5070619;28;20036;-56
2021/12/28 07:25:05;;;;;;;15.40;6.75;;;;;;;-8.08;67.81;99710.25;5070657;28;20054;-56
2021/12/28 07:27:31;;;;;;;11.93;5.97;;;;;;;-8.02;67.27;99707.22;5057692;28;20040;-55
2021/12/28 07:29:57;;;;;;;13.77;6.50;;;;;;;-7.97;68.04;99712.00;5089266;28;20047;-59
2021/12/28 07:32:22;;;;;;;14.40;5.95;;;;;;;-7.99;68.44;99717.28;5076690;28;20047;-57
2021/12/28 07:34:48;;;;;;;10.15;5.75;;;;;;;-8.09;69.00;99719.72;5088774;28;20135;-56
2021/12/28 07:37:14;;;;;;;14.10;6.32;;;;;;;-8.04;68.80;99721.94;5087252;28;20068;-56
2021/12/28 07:39:40;;;;;;;12.75;6.68;;;;;;;-7.92;68.96;99718.47;5078808;28;20119;-56
2021/12/28 07:42:06;;;;;;;12.55;6.15;;;;;;;-7.92;68.89;99718.47;5089894;28;20087;-57
2021/12/28 07:44:32;;;;;;;14.15;6.55;;;;;;;-7.95;68.97;99725.59;5085506;28;20079;-57
2021/12/28 07:46:58;;;;;;;11.15;6.18;;;;;;;-7.96;68.71;99722.22;5090228;28;20508;-57
2021/12/28 07:49:24;;;;;;;11.73;5.82;;;;;;;-7.86;69.25;99715.44;5087407;28;20036;-58
2021/12/28 07:51:50;;;;;;;13.35;6.85;;;;;;;-7.83;68.63;99720.38;5077064;28;20048;-60
2021/12/28 07:54:16;;;;;;;11.25;6.25;;;;;;;-7.79;69.18;99710.69;5083278;28;20055;-68
2021/12/28 07:56:42;;;;;;;14.25;6.80;;;;;;;-7.68;69.39;99721.00;5084577;28;20044;-57
2021/12/28 07:59:08;;;;;;;11.65;5.63;;;;;;;-7.63;68.11;99725.81;5052035;28;20545;-58
2021/12/28 08:01:35;;;;;;;11.18;6.32;;;;;;;-7.60;67.81;99717.88;5081268;28;20468;-58
2021/12/28 08:04:01;;;;;;;10.38;6.10;;;;;;;-7.56;68.73;99719.28;5057001;28;20127;-59
2021/12/28 08:06:27;;;;;;;14.55;6.15;;;;;;;-7.52;67.83;99723.28;5069813;28;20175;-57
2021/12/28 08:08:52;;;;;;;10.70;5.53;;;;;;;-7.46;67.32;99722.03;5075589;28;20052;-58
2021/12/28 08:11:18;;;;;;;11.95;5.95;;;;;;;-7.49;67.60;99724.81;5072591;28;20185;-59
2021/12/28 08:13:44;;;;;;;12.73;7.20;;;;;;;-7.43;68.17;99722.59;5072431;28;20057;-59
2021/12/28 08:16:10;;;;;;;12.00;6.72;;;;;;;-7.39;68.19;99723.19;5073868;28;20106;-58
2021/12/28 08:18:36;;;;;;;13.80;6.95;;;;;;;-7.46;68.65;99720.25;5076632;28;20040;-53
2021/12/28 08:21:02;;;;;;;14.32;6.75;;;;;;;-7.39;67.80;99721.44;5071065;28;20611;-58
2021/12/28 08:23:28;;;;;;;11.63;6.80;;;;;;;-7.35;66.83;99722.84;5067401;28;20051;-55
2021/12/28 08:25:54;;;;;;;14.30;7.63;;;;;;;-7.29;67.50;99720.75;5074408;28;20032;-58
2021/12/28 08:28:19;;;;;;;18.02;7.88;;;;;;;-7.31;66.66;99726.84;5071035;28;20127;-56
2021/12/28 08:30:45;;;;;;;17.05;7.88;;;;;;;-7.32;67.62;99722.63;5070772;28;20048;-58
2021/12/28 08:33:11;;;;;;;14.98;8.05;;;;;;;-7.29;67.69;99720.75;5072339;28;20048;-55
2021/12/28 08:35:41;;;;;;;20.42;8.98;;;;;;;-7.31;67.77;99724.25;5091410;28;20048;-56
2021/12/28 08:38:08;;;;;;;16.58;8.20;;;;;;;-7.31;67.81;99720.88;5085892;28;20581;-55
2021/12/28 08:40:35;;;;;;;15.88;8.02;;;;;;;-7.25;67.72;99727.31;5078452;28;20036;-56
2021/12/28 08:43:01;;;;;;;16.10;7.88;;;;;;;-7.34;68.31;99721.91;5077889;28;20056;-56
2021/12/28 08:45:27;;;;;;;17.40;7.88;;;;;;;-7.35;68.66;99725.44;5069002;28;20068;-57
2021/12/28 08:47:53;;;;;;;17.45;8.90;;;;;;;-7.20;68.15;99723.47;5073103;28;20067;-59
2021/12/28 08:50:20;;;;;;;18.60;8.77;;;;;;;-7.11;67.32;99730.50;5069252;28;20032;-56
2021/12/28 08:52:46;;;;;;;17.48;7.93;;;;;;;-7.06;67.31;99729.31;5068076;28;20044;-57
2021/12/28 08:55:13;;;;;;;18.70;9.25;;;;;;;-6.93;68.02;99743.75;5071135;28;20040;-58
2021/12/28 08:57:38;;;;;;;17.90;9.05;;;;;;;-6.93;67.60;99735.19;5068368;28;20416;-55
2021/12/28 09:00:12;;;;;;;20.90;9.45;;;;;;;-6.93;67.84;99743.75;5064795;28;20032;-56
2021/12/28 09:02:38;;;;;;;21.05;9.18;;;;;;;-6.93;68.21;99738.59;5063233;28;20044;-56
2021/12/28 09:05:05;;;;;;;16.42;8.57;;;;;;;-6.98;67.83;99729.56;5061454;28;20037;-57
2021/12/28 09:07:31;;;;;;;17.70;9.32;;;;;;;-6.91;68.15;99741.88;5070306;28;20172;-59
2021/12/28 09:09:57;;;;;;;17.10;9.05;;;;;;;-6.87;68.77;99734.72;5066140;28;20044;-54
2021/12/28 09:12:23;;;;;;;17.95;9.43;;;;;;;-6.81;67.72;99730.84;5061602;28;20066;-56
2021/12/28 09:14:49;;;;;;;22.15;9.00;;;;;;;-6.79;66.83;99731.53;5069634;28;20052;-59
2021/12/28 09:17:15;;;;;;;16.35;9.20;;;;;;;-6.80;66.81;99735.06;5069650;28;20146;-59
2021/12/28 09:19:41;;;;;;;13.77;7.95;;;;;;;-6.78;67.66;99728.03;5067362;28;20041;-57
2021/12/28 09:22:07;;;;;;;18.58;7.90;;;;;;;-6.79;67.12;99734.97;5066666;28;20055;-56
2021/12/28 09:24:33;;;;;;;17.27;9.30;;;;;;;-6.71;67.37;99732.59;5066222;28;20044;-59
2021/12/28 09:26:59;;;;;;;16.15;7.65;;;;;;;-6.71;67.59;99732.59;5067883;28;20052;-57
2021/12/28 09:29:29;;;;;;;20.75;8.40;;;;;;;-6.67;66.95;99740.94;5065565;28;20082;-59
2021/12/28 09:31:56;;;;;;;14.20;7.95;;;;;;;-6.64;66.65;99730.38;5067552;28;20499;-58
2021/12/28 09:34:22;;;;;;;15.90;7.93;;;;;;;-6.56;66.77;99737.50;5070073;28;20052;-58
2021/12/28 09:36:48;;;;;;;18.38;8.93;;;;;;;-6.54;66.11;99730.47;5069560;28;20065;-56
2021/12/28 09:39:14;;;;;;;15.45;9.07;;;;;;;-6.48;66.27;99740.31;5058457;28;20070;-57
2021/12/28 09:41:40;;;;;;;15.88;8.55;;;;;;;-6.45;65.56;99743.47;5050018;28;20040;-55
2021/12/28 09:44:06;;;;;;;14.15;8.00;;;;;;;-6.56;66.29;99745.25;5059647;28;20048;-57
2021/12/28 09:46:31;;;;;;;22.58;9.40;;;;;;;-6.50;66.20;99748.19;5050091;28;20036;-58
2021/12/28 09:48:57;;;;;;;17.00;8.75;;;;;;;-6.54;65.97;99749.34;5065798;28;20415;-61
2021/12/28 09:51:23;;;;;;;16.40;8.02;;;;;;;-6.61;65.54;99749.94;5057842;28;20037;-58
2021/12/28 09:53:52;;;;;;;13.57;7.95;;;;;;;-6.57;66.47;99746.19;5052799;28;20597;-59
2021/12/28 09:56:17;;;;;;;18.75;8.50;;;;;;;-6.47;65.58;99763.41;5067126;28;20049;-57
2021/12/28 09:58:43;;;;;;;16.52;8.27;;;;;;;-6.32;65.49;99766.56;5066839;28;20477;-57
2021/12/28 10:01:10;;;;;;;17.55;8.32;;;;;;;-6.32;65.46;99761.41;5060951;28;20486;-57
2021/12/28 10:03:36;;;;;;;15.68;8.13;;;;;;;-6.33;65.32;99764.91;5053416;28;20499;-55
2021/12/28 10:06:25;;;;;;;15.93;7.78;;;;;;;-6.21;64.83;99771.69;5064032;28;20524;-57
2021/12/28 10:09:08;;;;;;;15.75;7.25;;;;;;;-6.13;64.53;99770.28;5067024;28;20044;-58
2021/12/28 10:11:39;;;;;;;16.08;8.13;;;;;;;-6.16;64.95;99773.91;5047439;28;20032;-58
2021/12/28 10:14:14;;;;;;;20.25;8.70;;;;;;;-6.16;65.17;99768.75;5068766;28;20130;-57
2021/12/28 10:16:58;;;;;;;20.27;8.45;;;;;;;-6.21;65.13;99768.28;5087716;28;20086;-56
2021/12/28 10:19:40;;;;;;;17.67;8.38;;;;;;;-6.27;64.97;99768.75;5069428;28;20037;-59
2021/12/28 10:22:39;;;;;;;27.35;12.25;;;;;;;-6.14;64.72;99777.19;5050975;28;20047;-60
2021/12/28 10:25:15;;;;;;;17.77;7.95;;;;;;;-6.06;64.04;99772.25;5065843;28;20047;-58
2021/12/28 10:27:52;;;;;;;12.77;7.55;;;;;;;-6.12;63.93;99783.03;5065560;28;20127;-58
2021/12/28 10:30:22;;;;;;;19.73;8.48;;;;;;;-6.16;64.49;99781.66;5067573;28;20087;-58
2021/12/28 10:32:52;;;;;;;;;;;;;;;-6.10;64.08;99780.34;5085476;28;20127;-56
2021/12/28 10:35:30;;;;;;;14.80;7.72;;;;;;;-6.17;64.60;99778.25;5013379;28;20293;-57
2021/12/28 10:38:00;;;;;;;16.45;8.20;;;;;;;-6.14;64.38;99779.78;5067638;28;20486;-57
2021/12/28 10:40:29;;;;;;;16.67;8.27;;;;;;;-6.10;64.18;99770.84;5066163;28;20098;-59
2021/12/28 10:43:02;;;;;;;15.38;8.38;;;;;;;-6.09;64.45;99789.72;5058775;28;20048;-57
2021/12/28 10:45:36;;;;;;;16.70;8.32;;;;;;;-6.03;63.90;99786.66;5067243;28;20048;-59
2021/12/28 10:48:09;;;;;;;13.73;7.57;;;;;;;-6.11;64.09;99786.47;5067323;28;20048;-57
2021/12/28 10:50:40;;;;;;;15.65;7.90;;;;;;;-6.05;64.52;99784.22;5058015;28;20040;-58
2021/12/28 10:53:14;;;;;;;14.32;8.05;;;;;;;-5.91;63.80;99782.25;5066928;28;20044;-59
2021/12/28 10:55:42;;;;;;;14.60;6.97;;;;;;;-5.91;63.35;99790.00;5052037;28;20139;-60
2021/12/28 10:58:11;;;;;;;13.77;7.40;;;;;;;-5.96;64.02;99785.25;5048471;28;20045;-58
2021/12/28 11:00:41;;;;;;;10.20;6.13;;;;;;;-5.92;63.85;99781.44;5058738;28;20094;-59
2021/12/28 11:03:23;;;;;;;13.73;6.35;;;;;;;-5.97;63.72;99789.59;5065956;28;20037;-58
2021/12/28 11:05:51;;;;;;;13.40;6.13;;;;;;;-5.91;63.57;99782.25;5076364;28;20516;-59
2021/12/28 11:08:17;;;;;;;11.30;5.65;;;;;;;-5.92;63.21;99784.00;5082695;28;20044;-60
2021/12/28 11:10:55;;;;;;;13.02;6.38;;;;;;;-5.95;63.38;99781.72;5047797;28;20499;-56
2021/12/28 11:13:24;;;;;;;13.80;6.85;;;;;;;-5.95;63.46;99777.34;5049169;28;20052;-57
2021/12/28 11:15:50;;;;;;;15.05;6.53;;;;;;;-5.95;63.52;99771.38;5066613;28;20085;-57
2021/12/28 11:18:30;;;;;;;11.38;6.47;;;;;;;-5.96;63.39;99780.91;5064611;28;20041;-59
2021/12/28 11:20:57;;;;;;;10.18;6.10;;;;;;;-5.93;63.19;99784.19;5068679;28;20032;-58
2021/12/28 11:23:26;;;;;;;8.32;5.38;;;;;;;-5.96;62.53;99778.31;5084218;28;20044;-56
2021/12/28 11:26:10;;;;;;;8.98;5.20;;;;;;;-6.01;62.92;99777.03;5067989;28;20048;-57
2021/12/28 11:29:03;;;;;;;12.48;6.07;;;;;;;-5.96;62.53;99780.91;5030451;28;20052;-53